Portada
METAR-TAF:

METAR-TAF

Aeropuertos :

Roma-Fiumicino, Italia

Aeropuerto de Roma-Fiumicino

latitud: 41-48N, longitud: 012-14E, altitud: 2 m

Observación

El informe se hizo hace 13 minutos, a las 20:20 UTC
Viento 2 kt con dirección variable
Temperatura 6°C
Humedad 87%
Presión 1008 hPa
Visibilidad 10 km o más
sin nubes por debajo de 1500 m y sin presencia de cumulonimbus.

METAR: LIRF 162020Z VRB02KT CAVOK 06/04 Q1008 NOSIG

Hora: 21:33 (20:33 UTC)

Pronóstico

El informe se hizo hace 1 hora y 21 minutos, a las 19:12 UTC
Pronóstico válido del 16 a las 18 UTC al 17 a las 24 UTC
Viento 10 kt del oeste-noroeste
Visibilidad 10 km o más
Nubes dispersas a una altura de 3000 ft
Temporalmente
del 16 a las 18 UTC al 16 a las 21 UTC
lluvia
Evolucionando progresivamente
del 16 a las 22 UTC al 16 a las 24 UTC
Viento 15 kt del norte

TAF: LIRF 161912Z 1618/1724 30010KT 9999 SCT030 TEMPO 1618/1621 RA BECMG 1622/1624 01015KT

Observaciones y pronósticos meteorológicos de más de 4000 aeropuertos (mensajes METAR y TAF).

Los puntos amarillos y rojos representan las estaciones disponibles.

Ponga el ratón en el punto deseado para ver el nombre de la estación.

Haga clic para ver las observaciones y los pronósticos meteorológicos.

Para cambiar el mapa : haga clic en los botones verdes con una cruz de color negro para hacer un zoom, en el botón verde con un guión para alejar o en las flechas verdes para mapas adyacentes.


METAR-TAF: